Time;durP1;ratioP1;P1;durP2;ratioP2;P2;SDS_P1;SDS_P2;PMS_P1;PMS_P2;Temp;Humidity;BMP_temperature;BMP_pressure;BME280_temperature;BME280_humidity;BME280_pressure;Samples;Min_cycle;Max_cycle;Signal;HPM_P1;HPM_P2
2023/06/28 00:01:22;;;;;;;7.57;2.80;;;;;;;;;;5087894;28;20208;-69
2023/06/28 00:03:48;;;;;;;12.85;3.72;;;;;;;;;;5087166;28;20188;-68
2023/06/28 00:06:14;;;;;;;8.20;3.17;;;;;;;;;;5078643;28;20192;-68
2023/06/28 00:08:42;;;;;;;10.10;3.53;;;;;;;;;;5079745;28;20598;-68
2023/06/28 00:11:08;;;;;;;6.75;3.50;;;;;;;;;;5067866;28;20228;-68
2023/06/28 00:13:34;;;;;;;8.90;3.17;;;;;;;;;;5077689;28;20296;-68
2023/06/28 00:16:00;;;;;;;10.98;3.40;;;;;;;;;;5088800;28;20208;-68
2023/06/28 00:18:27;;;;;;;6.85;3.20;;;;;;;;;;5081464;28;20184;-68
2023/06/28 00:20:52;;;;;;;8.73;3.17;;;;;;;;;;5077448;28;20184;-68
2023/06/28 00:23:19;;;;;;;6.28;2.97;;;;;;;;;;5084170;28;20188;-68
2023/06/28 00:25:44;;;;;;;6.57;3.20;;;;;;;;;;5086995;28;20187;-68
2023/06/28 00:28:10;;;;;;;11.98;3.25;;;;;;;;;;5085925;28;20185;-68
2023/06/28 00:30:35;;;;;;;8.10;3.15;;;;;;;;;;5091583;28;20223;-68
2023/06/28 00:33:00;;;;;;;6.05;2.85;;;;;;;;;;5088392;28;20185;-68
2023/06/28 00:35:26;;;;;;;11.05;3.28;;;;;;;;;;5079906;28;20759;-69
2023/06/28 00:37:51;;;;;;;8.95;3.25;;;;;;;;;;5082090;28;20189;-68
2023/06/28 00:40:16;;;;;;;7.30;3.00;;;;;;;;;;5081907;28;20260;-69
2023/06/28 00:42:42;;;;;;;6.97;3.00;;;;;;;;;;5085339;28;20184;-68
2023/06/28 00:45:13;;;;;;;6.05;2.78;;;;;;;;;;5090944;28;20231;-68
2023/06/28 00:47:38;;;;;;;9.13;3.13;;;;;;;;;;5088344;28;20253;-68
2023/06/28 00:50:05;;;;;;;7.47;3.00;;;;;;;;;;5090019;28;20192;-68
2023/06/28 00:52:30;;;;;;;6.97;2.47;;;;;;;;;;5090673;28;20192;-68
2023/06/28 00:54:56;;;;;;;7.38;3.35;;;;;;;;;;5091546;28;20679;-68
2023/06/28 00:57:22;;;;;;;9.57;2.53;;;;;;;;;;5089381;28;20396;-68
2023/06/28 00:59:49;;;;;;;7.82;2.78;;;;;;;;;;5087935;28;20671;-68
2023/06/28 01:02:14;;;;;;;8.60;2.83;;;;;;;;;;5072943;28;20658;-68
2023/06/28 01:04:40;;;;;;;8.60;2.90;;;;;;;;;;5085610;28;20199;-68
2023/06/28 01:07:08;;;;;;;7.53;2.67;;;;;;;;;;5073700;28;20184;-68
2023/06/28 01:09:34;;;;;;;10.27;3.10;;;;;;;;;;5079762;28;20188;-68
2023/06/28 01:12:00;;;;;;;7.75;2.80;;;;;;;;;;5078046;28;20563;-68
2023/06/28 01:14:26;;;;;;;5.97;2.67;;;;;;;;;;5082005;28;20217;-68
2023/06/28 01:16:55;;;;;;;5.65;2.65;;;;;;;;;;5089590;28;20191;-68
2023/06/28 01:19:25;;;;;;;5.38;2.45;;;;;;;;;;5082738;28;20656;-68
2023/06/28 01:21:56;;;;;;;6.00;2.25;;;;;;;;;;5088015;28;20270;-68
2023/06/28 01:24:22;;;;;;;10.55;2.63;;;;;;;;;;5088283;28;20184;-68
2023/06/28 01:26:52;;;;;;;5.10;2.35;;;;;;;;;;5083496;28;20192;-68
2023/06/28 01:29:23;;;;;;;6.22;2.40;;;;;;;;;;5090950;28;20188;-67
2023/06/28 01:31:53;;;;;;;10.13;2.92;;;;;;;;;;5080577;28;20294;-68
2023/06/28 01:34:19;;;;;;;5.18;2.42;;;;;;;;;;5086103;28;20191;-68
2023/06/28 01:36:46;;;;;;;6.68;2.72;;;;;;;;;;5073886;28;20192;-68
2023/06/28 01:39:14;;;;;;;8.00;2.42;;;;;;;;;;5080219;28;20189;-68
2023/06/28 01:41:40;;;;;;;6.30;2.83;;;;;;;;;;5081955;28;20231;-68
2023/06/28 01:44:06;;;;;;;9.40;2.78;;;;;;;;;;5078168;28;20553;-68
2023/06/28 01:46:32;;;;;;;7.85;2.92;;;;;;;;;;5086352;28;20196;-68
2023/06/28 01:48:58;;;;;;;8.80;2.67;;;;;;;;;;5082587;28;20215;-68
2023/06/28 01:51:23;;;;;;;6.13;2.33;;;;;;;;;;5087413;28;20188;-68
2023/06/28 01:53:48;;;;;;;6.82;2.70;;;;;;;;;;5089869;28;20196;-68
2023/06/28 01:56:14;;;;;;;6.70;2.78;;;;;;;;;;5083011;28;20210;-68
2023/06/28 01:58:39;;;;;;;5.88;2.50;;;;;;;;;;5075353;28;20200;-68
2023/06/28 02:01:04;;;;;;;8.10;2.50;;;;;;;;;;5083127;28;20214;-68
2023/06/28 02:03:30;;;;;;;6.40;2.78;;;;;;;;;;5085844;28;20550;-68
2023/06/28 02:05:55;;;;;;;6.45;2.67;;;;;;;;;;5074853;28;20275;-68
2023/06/28 02:08:21;;;;;;;8.25;2.85;;;;;;;;;;5082371;28;20204;-68
2023/06/28 02:10:46;;;;;;;7.25;2.83;;;;;;;;;;5084692;28;20532;-68
2023/06/28 02:13:12;;;;;;;6.80;2.75;;;;;;;;;;5074736;28;20640;-68
2023/06/28 02:15:37;;;;;;;7.45;2.67;;;;;;;;;;5080620;28;20219;-68
2023/06/28 02:18:03;;;;;;;7.32;2.63;;;;;;;;;;5088851;28;20215;-68
2023/06/28 02:20:29;;;;;;;8.38;2.67;;;;;;;;;;5089106;28;20223;-68
2023/06/28 02:22:54;;;;;;;7.63;2.88;;;;;;;;;;5085839;28;20223;-68
2023/06/28 02:25:20;;;;;;;10.27;3.60;;;;;;;;;;5076218;28;20185;-68
2023/06/28 02:27:45;;;;;;;9.27;3.00;;;;;;;;;;5084796;28;20207;-68
2023/06/28 02:30:11;;;;;;;5.90;2.97;;;;;;;;;;5087546;28;20329;-68
2023/06/28 02:32:36;;;;;;;9.98;3.20;;;;;;;;;;5082366;28;20245;-68
2023/06/28 02:35:01;;;;;;;7.55;3.15;;;;;;;;;;5081207;28;20579;-68
2023/06/28 02:37:27;;;;;;;8.60;3.10;;;;;;;;;;5090073;28;20212;-70
2023/06/28 02:39:52;;;;;;;11.27;3.10;;;;;;;;;;5081037;28;20239;-68
2023/06/28 02:42:17;;;;;;;13.35;3.50;;;;;;;;;;5075798;28;20203;-68
2023/06/28 02:44:43;;;;;;;9.27;3.20;;;;;;;;;;5087717;28;20725;-68
2023/06/28 02:47:08;;;;;;;5.65;3.13;;;;;;;;;;5086627;28;20198;-69
2023/06/28 02:49:34;;;;;;;9.40;3.70;;;;;;;;;;5085120;28;20192;-68
2023/06/28 02:51:59;;;;;;;10.02;4.00;;;;;;;;;;5074536;28;20220;-68
2023/06/28 02:54:24;;;;;;;5.00;3.33;;;;;;;;;;5085615;28;20212;-68
2023/06/28 02:56:50;;;;;;;9.30;3.55;;;;;;;;;;5077122;28;20193;-68
2023/06/28 02:59:15;;;;;;;8.43;3.90;;;;;;;;;;5072533;28;20536;-68
2023/06/28 03:01:40;;;;;;;8.25;3.78;;;;;;;;;;5078048;28;20217;-68
2023/06/28 03:04:07;;;;;;;6.05;3.50;;;;;;;;;;5073698;28;20227;-68
2023/06/28 03:06:33;;;;;;;8.00;3.80;;;;;;;;;;5088726;28;20652;-69
2023/06/28 03:08:59;;;;;;;9.13;3.83;;;;;;;;;;5073134;28;20226;-68
2023/06/28 03:11:24;;;;;;;13.30;4.47;;;;;;;;;;5074887;28;20200;-68
2023/06/28 03:13:50;;;;;;;10.00;3.92;;;;;;;;;;5075483;28;20286;-68
2023/06/28 03:16:15;;;;;;;13.18;4.50;;;;;;;;;;5082085;28;20231;-68
2023/06/28 03:18:41;;;;;;;7.57;4.13;;;;;;;;;;5075916;28;20183;-68
2023/06/28 03:21:06;;;;;;;6.85;3.97;;;;;;;;;;5076103;28;20531;-68
2023/06/28 03:23:32;;;;;;;10.70;4.50;;;;;;;;;;5074354;28;20196;-68
2023/06/28 03:25:57;;;;;;;7.88;4.20;;;;;;;;;;5078975;28;20656;-68
2023/06/28 03:28:22;;;;;;;5.70;3.88;;;;;;;;;;5082965;28;20219;-68
2023/06/28 03:30:48;;;;;;;9.48;3.95;;;;;;;;;;5086661;28;20583;-68
2023/06/28 03:33:13;;;;;;;5.90;3.42;;;;;;;;;;5072036;28;20195;-68
2023/06/28 03:35:39;;;;;;;7.20;3.80;;;;;;;;;;5074346;28;20211;-70
2023/06/28 03:38:04;;;;;;;9.45;4.43;;;;;;;;;;5083277;28;20185;-68
2023/06/28 03:40:29;;;;;;;7.97;4.00;;;;;;;;;;5078445;28;20227;-68
2023/06/28 03:42:55;;;;;;;7.20;3.95;;;;;;;;;;5071208;28;20193;-68
2023/06/28 03:45:20;;;;;;;11.23;4.13;;;;;;;;;;5085224;28;20678;-68
2023/06/28 03:47:47;;;;;;;10.32;3.63;;;;;;;;;;5075525;28;20213;-68
2023/06/28 03:50:13;;;;;;;8.02;3.78;;;;;;;;;;5078580;28;21046;-68
2023/06/28 03:52:38;;;;;;;8.57;3.63;;;;;;;;;;5070205;28;20263;-69
2023/06/28 03:55:04;;;;;;;5.70;3.10;;;;;;;;;;5074898;28;20208;-68
2023/06/28 03:57:29;;;;;;;5.13;3.53;;;;;;;;;;5078458;28;20261;-68
2023/06/28 03:59:55;;;;;;;7.88;3.42;;;;;;;;;;5086423;28;20259;-68
2023/06/28 04:02:20;;;;;;;9.13;3.97;;;;;;;;;;5073192;28;20624;-68
2023/06/28 04:04:46;;;;;;;6.40;3.38;;;;;;;;;;5074953;28;20637;-68
2023/06/28 04:07:11;;;;;;;10.45;4.03;;;;;;;;;;5081742;28;20192;-68
2023/06/28 04:09:38;;;;;;;8.15;3.72;;;;;;;;;;5089291;28;20238;-69
2023/06/28 04:12:04;;;;;;;10.75;3.67;;;;;;;;;;5081494;28;20195;-68
2023/06/28 04:14:29;;;;;;;5.00;3.03;;;;;;;;;;5074893;28;20212;-70
2023/06/28 04:16:55;;;;;;;6.05;3.33;;;;;;;;;;5085332;28;20550;-68
2023/06/28 04:19:20;;;;;;;6.97;3.47;;;;;;;;;;5078384;28;20237;-67
2023/06/28 04:21:45;;;;;;;6.57;3.30;;;;;;;;;;5094574;28;20648;-67
2023/06/28 04:24:11;;;;;;;4.88;3.15;;;;;;;;;;5073287;28;20203;-69
2023/06/28 04:26:36;;;;;;;4.35;2.72;;;;;;;;;;5072735;28;20539;-68
2023/06/28 04:29:02;;;;;;;8.80;3.63;;;;;;;;;;5080497;28;20227;-68
2023/06/28 04:31:28;;;;;;;6.57;3.10;;;;;;;;;;5083455;28;20191;-68
2023/06/28 04:33:57;;;;;;;7.80;3.15;;;;;;;;;;5078499;28;20180;-68
2023/06/28 04:36:25;;;;;;;9.60;3.90;;;;;;;;;;5085056;28;20262;-70
2023/06/28 04:38:52;;;;;;;7.95;3.78;;;;;;;;;;5080344;28;20263;-70
2023/06/28 04:41:26;;;;;;;4.25;2.97;;;;;;;;;;5086801;28;20236;-69
2023/06/28 04:43:55;;;;;;;5.07;2.88;;;;;;;;;;5077748;28;20219;-69
2023/06/28 04:46:26;;;;;;;5.75;2.65;;;;;;;;;;5084393;28;20608;-69
2023/06/28 04:48:52;;;;;;;6.30;2.33;;;;;;;;;;5074983;28;20773;-69
2023/06/28 04:51:18;;;;;;;5.15;2.58;;;;;;;;;;5091379;28;20184;-69
2023/06/28 04:53:43;;;;;;;5.82;2.38;;;;;;;;;;5083887;28;20230;-68
2023/06/28 04:56:09;;;;;;;4.43;2.10;;;;;;;;;;5085179;28;20212;-68
2023/06/28 04:58:37;;;;;;;5.85;2.45;;;;;;;;;;5075107;28;20203;-68
2023/06/28 05:01:07;;;;;;;6.22;2.50;;;;;;;;;;5085167;28;20250;-69
2023/06/28 05:03:33;;;;;;;5.88;3.28;;;;;;;;;;5088246;28;20766;-69
2023/06/28 05:05:58;;;;;;;7.45;3.67;;;;;;;;;;5080077;28;20255;-69
2023/06/28 05:08:23;;;;;;;9.23;3.50;;;;;;;;;;5077599;28;20247;-69
2023/06/28 05:10:49;;;;;;;7.28;3.15;;;;;;;;;;5085321;28;20199;-70
2023/06/28 05:13:14;;;;;;;7.03;3.42;;;;;;;;;;5085161;28;20238;-70
2023/06/28 05:15:40;;;;;;;8.90;3.17;;;;;;;;;;5079640;28;20225;-70
2023/06/28 05:18:05;;;;;;;6.97;3.53;;;;;;;;;;5075187;28;20185;-70
2023/06/28 05:20:31;;;;;;;7.57;3.22;;;;;;;;;;5086935;28;20610;-70
2023/06/28 05:23:15;;;;;;;9.75;3.85;;;;;;;;;;5078284;28;20253;-70
2023/06/28 05:25:42;;;;;;;5.95;3.25;;;;;;;;;;5079396;28;20272;-71
2023/06/28 05:28:10;;;;;;;6.63;3.53;;;;;;;;;;5075629;28;20185;-70
2023/06/28 05:30:35;;;;;;;6.53;3.60;;;;;;;;;;5081999;28;20195;-71
2023/06/28 05:33:02;;;;;;;4.72;2.97;;;;;;;;;;5081794;28;20204;-70
2023/06/28 05:35:29;;;;;;;8.13;3.58;;;;;;;;;;5076371;28;20239;-70
2023/06/28 05:37:55;;;;;;;8.20;3.35;;;;;;;;;;5077764;28;20638;-69
2023/06/28 05:40:20;;;;;;;7.10;2.85;;;;;;;;;;5087926;28;20223;-71
2023/06/28 05:42:45;;;;;;;8.23;3.05;;;;;;;;;;5083875;28;20849;-70
2023/06/28 05:45:11;;;;;;;6.07;3.25;;;;;;;;;;5088341;28;20196;-70
2023/06/28 05:47:36;;;;;;;5.45;2.90;;;;;;;;;;5077521;28;20225;-69
2023/06/28 05:50:03;;;;;;;5.35;3.00;;;;;;;;;;5081114;28;20674;-70
2023/06/28 05:52:28;;;;;;;5.03;2.83;;;;;;;;;;5080406;28;20275;-69
2023/06/28 05:54:53;;;;;;;6.75;3.20;;;;;;;;;;5070225;28;20295;-69
2023/06/28 05:57:19;;;;;;;7.75;3.33;;;;;;;;;;5081041;28;20639;-70
2023/06/28 05:59:44;;;;;;;6.30;3.05;;;;;;;;;;5075293;28;20254;-70
2023/06/28 06:02:09;;;;;;;9.95;3.33;;;;;;;;;;5080627;28;20249;-70
2023/06/28 06:04:35;;;;;;;5.88;3.28;;;;;;;;;;5080384;28;20237;-70
2023/06/28 06:07:00;;;;;;;7.68;3.00;;;;;;;;;;5085508;28;20215;-70
2023/06/28 06:09:28;;;;;;;5.68;2.88;;;;;;;;;;5082173;28;20191;-70
2023/06/28 06:11:53;;;;;;;11.32;4.03;;;;;;;;;;5081863;28;20576;-69
2023/06/28 06:14:19;;;;;;;7.13;3.60;;;;;;;;;;5072841;28;20202;-70
2023/06/28 06:16:44;;;;;;;7.63;3.83;;;;;;;;;;5081330;28;20211;-69
2023/06/28 06:19:09;;;;;;;7.97;3.58;;;;;;;;;;5086440;28;20524;-70
2023/06/28 06:21:35;;;;;;;8.27;3.45;;;;;;;;;;5084713;28;20203;-70
2023/06/28 06:24:01;;;;;;;7.55;3.40;;;;;;;;;;5074573;28;20185;-70
2023/06/28 06:26:27;;;;;;;6.95;3.97;;;;;;;;;;5084387;28;20716;-70
2023/06/28 06:28:53;;;;;;;10.68;4.60;;;;;;;;;;5087900;28;20203;-71
2023/06/28 06:31:18;;;;;;;7.95;4.35;;;;;;;;;;5087678;28;20188;-70
2023/06/28 06:33:43;;;;;;;9.77;4.60;;;;;;;;;;5077150;28;20192;-71
2023/06/28 06:36:09;;;;;;;8.13;4.47;;;;;;;;;;5081394;28;20277;-71
2023/06/28 06:38:37;;;;;;;9.40;4.05;;;;;;;;;;5073913;28;20378;-71
2023/06/28 06:41:02;;;;;;;7.05;4.13;;;;;;;;;;5087381;28;20679;-71
2023/06/28 06:43:28;;;;;;;8.65;4.60;;;;;;;;;;5079981;28;20206;-71
2023/06/28 06:45:53;;;;;;;10.73;4.70;;;;;;;;;;5060451;28;20219;-71
2023/06/28 06:48:19;;;;;;;8.82;5.03;;;;;;;;;;5076239;28;20265;-71
2023/06/28 06:50:44;;;;;;;9.15;4.20;;;;;;;;;;5068515;28;20685;-70
2023/06/28 06:53:09;;;;;;;12.90;4.85;;;;;;;;;;5076961;28;20415;-70
2023/06/28 06:55:35;;;;;;;8.50;4.32;;;;;;;;;;5074454;28;20257;-71
2023/06/28 06:58:00;;;;;;;9.40;4.90;;;;;;;;;;5085491;28;20271;-71
2023/06/28 07:00:25;;;;;;;12.20;5.50;;;;;;;;;;5082280;28;20212;-70
2023/06/28 07:02:51;;;;;;;9.65;4.75;;;;;;;;;;5080603;28;20180;-70
2023/06/28 07:05:17;;;;;;;8.90;4.50;;;;;;;;;;5066594;28;20203;-70
2023/06/28 07:07:42;;;;;;;8.35;4.88;;;;;;;;;;5082007;28;20624;-70
2023/06/28 07:10:08;;;;;;;8.65;5.28;;;;;;;;;;5077920;28;20558;-70
2023/06/28 07:12:34;;;;;;;10.98;5.78;;;;;;;;;;5082322;28;20207;-70
2023/06/28 07:14:59;;;;;;;12.40;5.03;;;;;;;;;;5072157;28;20207;-70
2023/06/28 07:17:25;;;;;;;7.45;5.25;;;;;;;;;;5080750;28;20187;-71
2023/06/28 07:19:50;;;;;;;8.55;5.68;;;;;;;;;;5071225;28;20394;-71
2023/06/28 07:22:16;;;;;;;7.80;5.53;;;;;;;;;;5072537;28;20193;-71
2023/06/28 07:24:41;;;;;;;9.90;5.22;;;;;;;;;;5080333;28;20263;-70
2023/06/28 07:27:06;;;;;;;9.23;5.00;;;;;;;;;;5082674;28;20193;-71
2023/06/28 07:29:33;;;;;;;9.63;5.63;;;;;;;;;;5081919;28;20187;-70
2023/06/28 07:31:58;;;;;;;12.98;5.88;;;;;;;;;;5086382;28;20656;-69
2023/06/28 07:34:23;;;;;;;9.93;6.20;;;;;;;;;;5074647;28;20264;-71
2023/06/28 07:36:49;;;;;;;9.93;5.07;;;;;;;;;;5075714;28;20200;-71
2023/06/28 07:39:14;;;;;;;9.50;5.13;;;;;;;;;;5072752;28;20532;-70
2023/06/28 07:41:39;;;;;;;12.32;6.13;;;;;;;;;;5073787;28;20239;-70
2023/06/28 07:44:05;;;;;;;11.93;6.38;;;;;;;;;;5083387;28;20443;-70
2023/06/28 07:46:31;;;;;;;12.68;6.40;;;;;;;;;;5088116;28;20184;-70
2023/06/28 07:48:59;;;;;;;14.75;7.15;;;;;;;;;;5074263;28;20600;-70
2023/06/28 07:51:24;;;;;;;8.77;6.22;;;;;;;;;;5074864;28;20188;-71
2023/06/28 07:53:49;;;;;;;13.57;6.97;;;;;;;;;;5073173;28;20227;-71
2023/06/28 07:56:15;;;;;;;12.00;6.07;;;;;;;;;;5071857;28;20788;-71
2023/06/28 07:58:40;;;;;;;10.65;6.82;;;;;;;;;;5074641;28;20196;-70
2023/06/28 08:01:05;;;;;;;11.45;6.13;;;;;;;;;;5070924;28;20210;-71
2023/06/28 08:03:31;;;;;;;12.02;5.63;;;;;;;;;;5083801;28;20188;-71
2023/06/28 08:05:56;;;;;;;11.80;6.15;;;;;;;;;;5068605;28;20810;-70
2023/06/28 08:08:21;;;;;;;11.98;6.18;;;;;;;;;;5079158;28;20193;-70
2023/06/28 08:10:47;;;;;;;12.48;5.35;;;;;;;;;;5082834;28;20190;-71
2023/06/28 08:13:12;;;;;;;11.18;5.97;;;;;;;;;;5082515;28;20181;-70
2023/06/28 08:15:38;;;;;;;10.52;5.95;;;;;;;;;;5077014;28;20299;-71
2023/06/28 08:18:06;;;;;;;12.15;5.30;;;;;;;;;;5081415;28;20188;-71
2023/06/28 08:20:31;;;;;;;10.27;6.13;;;;;;;;;;5075509;28;20188;-69
2023/06/28 08:22:56;;;;;;;12.95;5.60;;;;;;;;;;5079153;28;20287;-71
2023/06/28 08:25:22;;;;;;;12.73;5.80;;;;;;;;;;5078896;28;20181;-70
2023/06/28 08:27:47;;;;;;;10.82;5.82;;;;;;;;;;5070181;28;20268;-71
2023/06/28 08:30:13;;;;;;;10.95;6.75;;;;;;;;;;5074297;28;20185;-70
2023/06/28 08:32:38;;;;;;;12.25;7.07;;;;;;;;;;5083264;28;20196;-70
2023/06/28 08:35:04;;;;;;;13.52;6.40;;;;;;;;;;5071843;28;20212;-71
2023/06/28 08:37:34;;;;;;;9.07;6.22;;;;;;;;;;5081456;28;20195;-70
2023/06/28 08:39:59;;;;;;;12.70;6.53;;;;;;;;;;5083629;28;20295;-70
2023/06/28 08:42:27;;;;;;;9.43;5.93;;;;;;;;;;5084475;28;20270;-70
2023/06/28 08:44:56;;;;;;;12.43;6.07;;;;;;;;;;5080866;28;20271;-70
2023/06/28 08:47:21;;;;;;;8.60;5.93;;;;;;;;;;5081611;28;20197;-70
2023/06/28 08:49:47;;;;;;;11.57;5.80;;;;;;;;;;5086414;28;20700;-71
2023/06/28 08:52:15;;;;;;;12.30;5.93;;;;;;;;;;5084142;28;20192;-70
2023/06/28 08:54:42;;;;;;;9.52;6.07;;;;;;;;;;5077953;28;20609;-71
2023/06/28 08:57:08;;;;;;;13.07;7.07;;;;;;;;;;5086835;28;20227;-71
2023/06/28 08:59:34;;;;;;;12.98;6.57;;;;;;;;;;5083158;28;20188;-71
2023/06/28 09:02:01;;;;;;;9.88;6.07;;;;;;;;;;5083945;28;20690;-72
2023/06/28 09:04:27;;;;;;;13.55;6.22;;;;;;;;;;5081494;28;20184;-70
2023/06/28 09:06:53;;;;;;;14.38;6.20;;;;;;;;;;5089689;28;20195;-70
2023/06/28 09:09:19;;;;;;;13.32;6.40;;;;;;;;;;5077819;28;20189;-70
2023/06/28 09:11:46;;;;;;;15.48;7.15;;;;;;;;;;5083065;28;20527;-70
2023/06/28 09:14:12;;;;;;;12.63;6.85;;;;;;;;;;5086925;28;20583;-70
2023/06/28 09:16:37;;;;;;;9.50;6.38;;;;;;;;;;5068163;28;20265;-71
2023/06/28 09:19:03;;;;;;;10.50;6.78;;;;;;;;;;5086148;28;20191;-71
2023/06/28 09:21:29;;;;;;;11.05;6.88;;;;;;;;;;5074712;28;20309;-71
2023/06/28 09:23:55;;;;;;;13.15;6.05;;;;;;;;;;5084487;28;20199;-69
2023/06/28 09:26:28;;;;;;;10.63;5.55;;;;;;;;;;5076908;28;20544;-71
2023/06/28 09:28:53;;;;;;;11.05;7.20;;;;;;;;;;5076101;28;20195;-71
2023/06/28 09:31:19;;;;;;;9.82;5.43;;;;;;;;;;5076652;28;20567;-71
2023/06/28 09:33:44;;;;;;;12.85;6.50;;;;;;;;;;5073939;28;20199;-71
2023/06/28 09:36:10;;;;;;;13.70;6.70;;;;;;;;;;5076411;28;20796;-70
2023/06/28 09:38:42;;;;;;;13.68;6.50;;;;;;;;;;5079405;28;20271;-70
2023/06/28 09:41:07;;;;;;;12.48;6.38;;;;;;;;;;5084396;28;20357;-70
2023/06/28 09:43:35;;;;;;;9.88;6.20;;;;;;;;;;5078471;28;20279;-71
2023/06/28 09:46:14;;;;;;;12.63;6.55;;;;;;;;;;5081910;28;20190;-70
2023/06/28 09:48:47;;;;;;;12.60;7.20;;;;;;;;;;5087852;28;20616;-70
2023/06/28 09:51:15;;;;;;;13.90;7.35;;;;;;;;;;5091629;28;20275;-71
2023/06/28 09:53:49;;;;;;;13.40;6.85;;;;;;;;;;5087840;28;20184;-72
2023/06/28 09:56:15;;;;;;;15.43;7.03;;;;;;;;;;5079230;28;20269;-71
2023/06/28 09:58:41;;;;;;;13.35;6.72;;;;;;;;;;5074809;28;20188;-70
2023/06/28 10:01:07;;;;;;;14.55;7.40;;;;;;;;;;5085618;28;20538;-71
2023/06/28 10:03:33;;;;;;;15.48;7.20;;;;;;;;;;5078610;28;20195;-69
2023/06/28 10:05:59;;;;;;;12.13;6.68;;;;;;;;;;5082770;28;20180;-70
2023/06/28 10:08:25;;;;;;;14.32;7.15;;;;;;;;;;5070267;28;20652;-71
2023/06/28 10:10:53;;;;;;;12.73;7.07;;;;;;;;;;5081746;28;20279;-71
2023/06/28 10:13:21;;;;;;;12.57;6.72;;;;;;;;;;5079810;28;20199;-71
2023/06/28 10:16:02;;;;;;;14.73;7.30;;;;;;;;;;5080649;28;20212;-71
2023/06/28 10:18:28;;;;;;;13.50;7.03;;;;;;;;;;5081029;28;20188;-71
2023/06/28 10:20:54;;;;;;;14.25;6.07;;;;;;;;;;5083065;28;20690;-71
2023/06/28 10:23:19;;;;;;;12.80;6.90;;;;;;;;;;5081237;28;20200;-70
2023/06/28 10:25:46;;;;;;;13.23;6.78;;;;;;;;;;5084503;28;20187;-72
2023/06/28 10:28:14;;;;;;;9.27;6.75;;;;;;;;;;5084019;28;20211;-73
2023/06/28 10:30:41;;;;;;;12.05;6.05;;;;;;;;;;5082447;28;20576;-71
2023/06/28 10:33:06;;;;;;;15.95;8.05;;;;;;;;;;5083154;28;20701;-71
2023/06/28 10:35:32;;;;;;;11.43;7.28;;;;;;;;;;5068940;28;20350;-70
2023/06/28 10:37:59;;;;;;;12.48;7.32;;;;;;;;;;5087001;28;20694;-71
2023/06/28 10:40:25;;;;;;;11.38;6.90;;;;;;;;;;5073572;28;20703;-72
2023/06/28 10:42:51;;;;;;;12.52;7.10;;;;;;;;;;5083070;28;20204;-71
2023/06/28 10:45:17;;;;;;;13.80;7.38;;;;;;;;;;5078667;28;20193;-71
2023/06/28 10:47:55;;;;;;;10.63;7.22;;;;;;;;;;5077550;28;20195;-69
2023/06/28 10:50:22;;;;;;;12.27;6.47;;;;;;;;;;5071523;28;20191;-72
2023/06/28 10:52:49;;;;;;;12.90;6.35;;;;;;;;;;5078138;28;20618;-72
2023/06/28 10:55:19;;;;;;;11.95;7.72;;;;;;;;;;5072498;28;20228;-72
2023/06/28 10:57:44;;;;;;;10.00;6.60;;;;;;;;;;5075476;28;20192;-71
2023/06/28 11:00:31;;;;;;;10.20;6.78;;;;;;;;;;5085486;28;20192;-72
2023/06/28 11:03:01;;;;;;;9.75;6.80;;;;;;;;;;5068838;28;20192;-72
2023/06/28 11:05:59;;;;;;;10.50;6.65;;;;;;;;;;5066967;28;20540;-70
2023/06/28 11:08:42;;;;;;;12.65;7.70;;;;;;;;;;5059127;28;20287;-72
2023/06/28 11:11:09;;;;;;;12.38;7.53;;;;;;;;;;5084584;28;20507;-71
2023/06/28 11:13:50;;;;;;;12.45;7.07;;;;;;;;;;5087259;28;20669;-70
2023/06/28 11:16:23;;;;;;;10.70;7.43;;;;;;;;;;5073674;28;20290;-71
2023/06/28 11:18:50;;;;;;;10.70;7.28;;;;;;;;;;5078259;28;20247;-71
2023/06/28 11:21:21;;;;;;;12.35;7.55;;;;;;;;;;5073724;28;20201;-71
2023/06/28 11:23:47;;;;;;;14.55;7.68;;;;;;;;;;5083663;28;20196;-69
2023/06/28 11:26:33;;;;;;;16.10;8.07;;;;;;;;;;5066650;28;20578;-71
2023/06/28 11:28:59;;;;;;;12.93;7.72;;;;;;;;;;5075678;28;20605;-70
2023/06/28 11:31:37;;;;;;;11.55;7.18;;;;;;;;;;5078869;28;20188;-71
2023/06/28 11:34:03;;;;;;;15.73;7.60;;;;;;;;;;5080300;28;20724;-71
2023/06/28 11:36:29;;;;;;;10.60;7.85;;;;;;;;;;5071970;28;20204;-70
2023/06/28 11:38:54;;;;;;;13.60;7.80;;;;;;;;;;5079522;28;20188;-71
2023/06/28 11:41:19;;;;;;;12.20;7.70;;;;;;;;;;5081553;28;20527;-71
2023/06/28 11:43:46;;;;;;;12.30;7.78;;;;;;;;;;5081580;28;20219;-70
2023/06/28 11:46:20;;;;;;;12.90;7.05;;;;;;;;;;5068318;28;20262;-71
2023/06/28 11:48:48;;;;;;;14.00;7.50;;;;;;;;;;5080657;28;20241;-71
2023/06/28 11:51:14;;;;;;;13.23;8.05;;;;;;;;;;5083745;28;20188;-71
2023/06/28 11:53:40;;;;;;;14.77;7.57;;;;;;;;;;5084096;28;20184;-69
2023/06/28 11:56:05;;;;;;;13.65;7.50;;;;;;;;;;5083921;28;20303;-70
2023/06/28 11:58:32;;;;;;;10.32;6.88;;;;;;;;;;5077580;28;20201;-70
2023/06/28 12:00:59;;;;;;;13.90;7.43;;;;;;;;;;5074467;28;20207;-68
2023/06/28 12:03:35;;;;;;;14.13;8.07;;;;;;;;;;5074343;28;20185;-70
2023/06/28 12:06:02;;;;;;;11.40;7.32;;;;;;;;;;5069436;28;20180;-70
2023/06/28 12:08:33;;;;;;;13.88;8.27;;;;;;;;;;5083043;28;20195;-70
2023/06/28 12:10:59;;;;;;;13.98;7.90;;;;;;;;;;5078989;28;20192;-70
2023/06/28 12:13:25;;;;;;;12.45;7.63;;;;;;;;;;5080178;28;20643;-71
2023/06/28 12:15:52;;;;;;;15.13;8.70;;;;;;;;;;5075667;28;20257;-70
2023/06/28 12:18:17;;;;;;;18.05;8.43;;;;;;;;;;5077527;28;20521;-70
2023/06/28 12:20:43;;;;;;;11.43;7.18;;;;;;;;;;5080066;28;20606;-70
2023/06/28 12:23:15;;;;;;;13.30;8.30;;;;;;;;;;5081380;28;20445;-71
2023/06/28 12:25:42;;;;;;;14.13;8.32;;;;;;;;;;5081868;28;20193;-70
2023/06/28 12:28:08;;;;;;;14.68;8.15;;;;;;;;;;5079420;28;20185;-70
2023/06/28 12:30:34;;;;;;;15.20;8.13;;;;;;;;;;5079569;28;20206;-71
2023/06/28 12:33:05;;;;;;;13.23;7.95;;;;;;;;;;5080581;28;20263;-71
2023/06/28 12:35:31;;;;;;;12.45;7.25;;;;;;;;;;5085867;28;20208;-70
2023/06/28 12:37:58;;;;;;;19.58;9.65;;;;;;;;;;5075970;28;20224;-70
2023/06/28 12:40:31;;;;;;;13.90;8.43;;;;;;;;;;5084283;28;20255;-70
2023/06/28 12:43:09;;;;;;;18.45;9.00;;;;;;;;;;5075071;28;20223;-71
2023/06/28 12:45:45;;;;;;;12.90;8.48;;;;;;;;;;5082162;28;20203;-70
2023/06/28 12:48:10;;;;;;;16.35;9.75;;;;;;;;;;5078522;28;20295;-70
2023/06/28 12:50:36;;;;;;;16.65;7.80;;;;;;;;;;5091258;28;20502;-70
2023/06/28 12:53:02;;;;;;;13.93;8.90;;;;;;;;;;5075647;28;20299;-70
2023/06/28 12:55:27;;;;;;;20.58;9.23;;;;;;;;;;5087174;28;20216;-71
2023/06/28 12:57:52;;;;;;;14.00;9.05;;;;;;;;;;5082583;28;20707;-70
2023/06/28 13:00:18;;;;;;;16.00;9.77;;;;;;;;;;5081020;28;20414;-71
2023/06/28 13:02:44;;;;;;;16.70;8.80;;;;;;;;;;5081850;28;20272;-71
2023/06/28 13:05:09;;;;;;;17.40;10.18;;;;;;;;;;5086599;28;20864;-70
2023/06/28 13:07:35;;;;;;;17.88;9.32;;;;;;;;;;5081323;28;20686;-71
2023/06/28 13:10:01;;;;;;;18.15;10.13;;;;;;;;;;5084526;28;20563;-70
2023/06/28 13:12:26;;;;;;;15.93;9.90;;;;;;;;;;5079680;28;20180;-70
2023/06/28 13:14:51;;;;;;;14.48;10.50;;;;;;;;;;5079356;28;20242;-69
2023/06/28 13:17:17;;;;;;;16.50;9.70;;;;;;;;;;5082917;28;20553;-70
2023/06/28 13:19:42;;;;;;;18.08;10.65;;;;;;;;;;5084894;28;20202;-69
2023/06/28 13:22:08;;;;;;;18.52;10.75;;;;;;;;;;5080868;28;20211;-69
2023/06/28 13:24:33;;;;;;;19.23;10.88;;;;;;;;;;5082289;28;20252;-70
2023/06/28 13:26:58;;;;;;;17.73;9.80;;;;;;;;;;5078758;28;20809;-70
2023/06/28 13:29:25;;;;;;;18.65;10.95;;;;;;;;;;5085063;28;20253;-70
2023/06/28 13:31:50;;;;;;;20.05;10.98;;;;;;;;;;5074333;28;20222;-71
2023/06/28 13:34:16;;;;;;;21.77;10.80;;;;;;;;;;5081639;28;20215;-70
2023/06/28 13:36:43;;;;;;;18.58;10.80;;;;;;;;;;5088904;28;20220;-70
2023/06/28 13:39:09;;;;;;;19.50;9.48;;;;;;;;;;5078863;28;20195;-70
2023/06/28 13:41:34;;;;;;;18.77;9.82;;;;;;;;;;5085682;28;20232;-70
2023/06/28 13:44:00;;;;;;;21.00;9.80;;;;;;;;;;5081656;28;20726;-70
2023/06/28 13:46:25;;;;;;;16.98;9.80;;;;;;;;;;5074826;28;20534;-70
2023/06/28 13:48:50;;;;;;;16.42;10.55;;;;;;;;;;5076877;28;20196;-70
2023/06/28 13:51:16;;;;;;;20.13;9.85;;;;;;;;;;5078821;28;20271;-70
2023/06/28 13:53:41;;;;;;;19.88;10.25;;;;;;;;;;5081686;28;20295;-70
2023/06/28 13:56:06;;;;;;;16.40;8.93;;;;;;;;;;5081545;28;20192;-70
2023/06/28 13:58:33;;;;;;;15.90;10.00;;;;;;;;;;5084991;28;20199;-70
2023/06/28 14:00:59;;;;;;;21.00;10.85;;;;;;;;;;5080504;28;20208;-70
2023/06/28 14:03:25;;;;;;;20.27;10.77;;;;;;;;;;5083559;28;20680;-70
2023/06/28 14:05:52;;;;;;;15.88;9.75;;;;;;;;;;5088393;28;20211;-70
2023/06/28 14:08:18;;;;;;;17.95;9.65;;;;;;;;;;5086641;28;20267;-70
2023/06/28 14:10:43;;;;;;;18.42;10.15;;;;;;;;;;5077326;28;20287;-71
2023/06/28 14:13:08;;;;;;;16.67;9.82;;;;;;;;;;5079761;28;20200;-70
2023/06/28 14:15:34;;;;;;;19.88;11.10;;;;;;;;;;5080034;28;20200;-70
2023/06/28 14:17:59;;;;;;;18.88;10.13;;;;;;;;;;5074772;28;20192;-70
2023/06/28 14:20:25;;;;;;;19.65;10.85;;;;;;;;;;5083422;28;20204;-69
2023/06/28 14:22:53;;;;;;;18.63;10.55;;;;;;;;;;5076176;28;20177;-70
2023/06/28 14:25:19;;;;;;;18.70;10.18;;;;;;;;;;5078746;28;20196;-70
2023/06/28 14:27:44;;;;;;;14.25;9.60;;;;;;;;;;5082537;28;20260;-70
2023/06/28 14:30:10;;;;;;;18.45;10.35;;;;;;;;;;5082589;28;20180;-71
2023/06/28 14:32:36;;;;;;;20.33;9.90;;;;;;;;;;5076859;28;20290;-70